KD8CJ Weather Reports


Display with metric or nautical units.
time (UTC)temp
F
wind
direction
speed
MPH
gust
MPH
rain 1hr
in
rain 24hr
in
rain mn
in
humidity
%
barometer
mb
20201023223022 67 211 0.0 4.0 0.00 0.01 0.01 91 1013.7
20201023220020 69 211 3.0 8.0 0.01 0.01 0.01 87 1013.5
20201023213021 72 203 6.0 17.0 0.01 0.01 0.01 76 1013.9
20201023210020 76 225 8.0 16.0 0.00 0.00 0.00 68 1014.0
20201023203018 77 233 7.0 22.0 0.00 0.00 0.00 68 1013.9
20201023200025 77 204 8.0 20.0 0.00 0.00 0.00 67 1014.5
20201023193011 77 255 12.0 21.0 0.00 0.00 0.00 70 1014.6
20201023190023 77 211 8.0 19.0 0.00 0.00 0.00 71 1015.2
20201023183021 77 196 10.0 19.0 0.00 0.01 0.00 71 1015.8
20201023180018 75 202 7.0 22.0 0.00 0.01 0.00 67 1016.3
20201023173017 75 219 6.0 20.0 0.00 0.01 0.00 73 1016.7
20201023170030 74 208 8.0 13.0 0.00 0.01 0.00 75 1017.1
20201023163018 74 252 4.0 16.0 0.00 0.01 0.00 74 1017.4
20201023160022 71 256 7.0 19.0 0.00 0.01 0.00 79 1017.6
20201023153033 70 213 2.0 12.0 0.00 0.01 0.00 73 1018.1
20201023150018 68 235 4.0 6.0 0.00 0.01 0.00 74 1018.4
20201023143029 64 220 4.0 9.0 0.00 0.01 0.00 81 1019.0
20201023140021 64 209 4.0 8.0 0.00 0.01 0.00 83 1019.2
20201023133017 62 251 4.0 6.0 0.00 0.01 0.00 86 1019.3
20201023130018 60 249 2.0 8.0 0.00 0.01 0.00 91 1019.1
20201023123017 59 256 2.0 6.0 0.00 0.01 0.00 96 1019.0
20201023120022 57 210 1.0 3.0 0.00 0.01 0.00 97 1018.8
20201023113016 57 210 0.0 2.0 0.00 0.01 0.00 93 1019.1
20201023110016 58 210 1.0 5.0 0.00 0.01 0.00 97 1019.1
20201023103023 57 210 1.0 3.0 0.00 0.01 0.00 100 1019.1
20201023100016 56 210 0.0 3.0 0.00 0.01 0.00 99 1018.8
20201023093017 56 210 0.0 1.0 0.00 0.01 0.00 98 1018.8
20201023090023 56 210 0.0 2.0 0.00 0.01 0.00 97 1018.5
20201023083019 57 210 0.0 1.0 0.00 0.01 0.00 98 1018.7
20201023080035 56 210 0.0 3.0 0.00 0.01 0.00 98 1018.7
20201023073029 56 210 0.0 2.0 0.00 0.01 0.00 98 1018.5
20201023070022 56 210 0.0 1.0 0.00 0.01 0.00 97 1018.5
20201023063025 57 210 0.0 1.0 0.00 0.01 0.00 96 1018.7
20201023060019 57 210 0.0 2.0 0.00 0.01 0.00 96 1018.8
20201023053024 57 210 0.0 1.0 0.00 0.01 0.00 95 1018.9
20201023050022 58 210 0.0 1.0 0.00 0.01 0.00 100 1019.1
20201023043021 58 210 0.0 1.0 0.00 0.01 0.00 94 1019.4
20201023040021 59 210 0.0 1.0 0.00 0.01 0.00 94 1019.8
20201023033020 59 210 0.0 1.0 0.00 0.01 0.01 93 1019.8
20201023030023 60 210 0.0 2.0 0.00 0.01 0.01 88 1020.1
20201023023021 61 210 0.0 1.0 0.00 0.01 0.01 87 1020.2
20201023020019 62 210 0.0 1.0 0.00 0.01 0.01 87 1020.4
20201023013020 63 210 0.0 2.0 0.00 0.01 0.01 84 1020.4
20201023010021 63 210 1.0 2.0 0.00 0.01 0.01 82 1020.5
20201023003025 64 210 0.0 1.0 0.00 0.01 0.01 83 1020.5
20201023000025 66 210 0.0 1.0 0.00 0.01 0.01 87 1020.7
20201022233017 68 211 0.0 1.0 0.00 0.01 0.01 85 1020.6
20201022230031 70 210 0.0 1.0 0.00 0.01 0.01 82 1020.6